Time;durP1;ratioP1;P1;durP2;ratioP2;P2;SDS_P1;SDS_P2;PMS_P1;PMS_P2;Temp;Humidity;BMP_temperature;BMP_pressure;BME280_temperature;BME280_humidity;BME280_pressure;Samples;Min_cycle;Max_cycle;Signal;HPM_P1;HPM_P2
2022/10/30 00:00:35;;;;;;;25.23;9.40;;;;;;;42.78;33.34;100920.22;4953670;28;20395;-72
2022/10/30 00:03:01;;;;;;;32.57;9.60;;;;;;;42.53;33.66;100924.78;4953189;29;20858;-72
2022/10/30 00:05:27;;;;;;;21.97;9.03;;;;;;;42.86;33.39;100916.59;4952731;28;20517;-72
2022/10/30 00:07:57;;;;;;;20.23;8.60;;;;;;;42.73;33.93;100923.19;4936870;29;20974;-72
2022/10/30 00:10:24;;;;;;;32.13;8.80;;;;;;;42.87;33.66;100914.66;4952754;29;20419;-74
2022/10/30 00:12:50;;;;;;;33.73;8.90;;;;;;;42.77;33.58;100920.56;4954310;28;20495;-74
2022/10/30 00:15:16;;;;;;;17.17;9.47;;;;;;;42.54;33.61;100920.13;4952851;29;20584;-71
2022/10/30 00:17:42;;;;;;;23.90;9.87;;;;;;;42.67;33.99;100913.63;4952743;28;20427;-71
2022/10/30 00:20:08;;;;;;;25.63;10.40;;;;;;;42.50;34.32;100909.13;4936932;29;20943;-72
2022/10/30 00:22:35;;;;;;;26.33;9.33;;;;;;;42.85;33.55;100911.50;4952558;29;20466;-72
2022/10/30 00:25:02;;;;;;;26.77;11.57;;;;;;;42.78;33.72;100898.38;4936883;29;20806;-71
2022/10/30 00:27:28;;;;;;;29.97;9.67;;;;;;;42.98;33.56;100895.91;4952685;29;20475;-72
2022/10/30 00:29:54;;;;;;;24.73;11.53;;;;;;;42.31;34.45;100895.19;4954149;28;20422;-72
2022/10/30 00:32:20;;;;;;;15.37;7.60;;;;;;;42.40;34.06;100893.16;4956032;28;20668;-71
2022/10/30 00:34:46;;;;;;;21.27;8.00;;;;;;;42.64;34.22;100892.47;4940367;29;20548;-71
2022/10/30 00:37:12;;;;;;;24.10;9.27;;;;;;;42.65;34.05;100885.88;4957671;28;20407;-72
2022/10/30 00:39:38;;;;;;;26.77;8.47;;;;;;;42.53;34.11;100883.09;4940823;29;20187;-72
2022/10/30 00:42:03;;;;;;;21.23;9.13;;;;;;;42.36;34.48;100881.38;4955856;29;20447;-73
2022/10/30 00:44:45;;;;;;;30.43;8.63;;;;;;;41.85;34.53;100891.56;4957500;28;20430;-72
2022/10/30 00:47:26;;;;;;;26.33;12.47;;;;;;;42.02;34.33;100882.44;4955844;29;20505;-71
2022/10/30 00:49:57;;;;;;;24.40;8.57;;;;;;;41.73;35.27;100886.03;4957494;28;20415;-71
2022/10/30 00:52:28;;;;;;;21.00;8.87;;;;;;;42.27;34.97;100875.97;4939864;29;20490;-71
2022/10/30 00:54:56;;;;;;;24.70;11.60;;;;;;;42.44;35.25;100882.41;4955794;29;20431;-71
2022/10/30 00:57:22;;;;;;;19.70;9.27;;;;;;;42.46;34.72;100877.41;4955676;29;20438;-71
2022/10/30 00:59:49;;;;;;;31.83;11.30;;;;;;;41.81;34.93;100877.81;4955710;29;20429;-71
2022/10/30 01:02:18;;;;;;;24.13;9.40;;;;;;;42.43;33.74;100875.34;4955488;28;20459;-72
2022/10/30 01:04:46;;;;;;;35.27;12.30;;;;;;;42.28;34.16;100874.84;4955612;28;20452;-71
2022/10/30 01:07:15;;;;;;;24.90;9.70;;;;;;;42.51;33.61;100871.72;4957030;28;20407;-71
2022/10/30 01:09:41;;;;;;;27.13;8.30;;;;;;;42.50;33.67;100870.13;4956047;29;20470;-71
2022/10/30 01:12:08;;;;;;;21.50;10.20;;;;;;;42.45;33.71;100864.91;4957136;28;20412;-71
2022/10/30 01:14:37;;;;;;;23.77;9.57;;;;;;;41.93;35.53;100863.47;4955263;29;20439;-71
2022/10/30 01:17:12;;;;;;;29.37;11.57;;;;;;;42.57;34.24;100859.47;4956940;28;20911;-71
2022/10/30 01:19:47;;;;;;;17.13;8.00;;;;;;;42.49;34.61;100847.53;4955285;29;20423;-71
2022/10/30 01:22:19;;;;;;;15.17;9.13;;;;;;;42.57;34.80;100854.84;4955158;29;20541;-71
2022/10/30 01:25:24;;;;;;;27.00;9.53;;;;;;;42.76;34.24;100859.75;4956786;28;20915;-71
2022/10/30 01:28:23;;;;;;;23.20;7.47;;;;;;;42.05;35.46;100859.97;4956112;28;20474;-71
2022/10/30 01:30:58;;;;;;;18.83;8.50;;;;;;;42.27;35.14;100856.91;4954969;29;20431;-71
2022/10/30 01:33:41;;;;;;;28.33;10.00;;;;;;;42.63;34.63;100852.69;4955040;29;20939;-71
2022/10/30 01:36:33;;;;;;;27.00;12.50;;;;;;;42.00;34.83;100852.81;4954874;28;20447;-72
2022/10/30 01:39:06;;;;;;;24.47;9.67;;;;;;;41.79;35.29;100843.84;4918794;29;20556;-71
2022/10/30 01:41:32;;;;;;;31.63;12.57;;;;;;;41.22;36.69;100841.66;4956197;28;20450;-71
2022/10/30 01:44:04;;;;;;;23.60;9.93;;;;;;;41.71;35.54;100834.59;4954737;28;20469;-70
2022/10/30 01:46:58;;;;;;;23.53;10.50;;;;;;;41.85;35.65;100839.78;4956524;28;20414;-70
2022/10/30 01:49:49;;;;;;;39.77;11.03;;;;;;;42.02;35.27;100844.31;4954813;29;20442;-72
2022/10/30 01:52:32;;;;;;;24.47;11.90;;;;;;;41.11;37.00;100829.56;4954863;29;20443;-70
2022/10/30 01:55:34;;;;;;;26.43;11.50;;;;;;;41.76;35.87;100830.91;4954716;29;20427;-69
2022/10/30 01:58:27;;;;;;;31.50;14.33;;;;;;;42.03;35.26;100833.06;4954423;28;20433;-70
2022/10/30 02:00:55;;;;;;;20.83;9.90;;;;;;;42.08;35.21;100832.06;4956230;28;20408;-71
2022/10/30 02:03:22;;;;;;;18.47;9.70;;;;;;;42.05;35.08;100833.53;4953884;29;20998;-70
2022/10/30 02:05:50;;;;;;;29.30;10.53;;;;;;;41.88;35.54;100830.19;4954368;28;20454;-70
2022/10/30 02:08:16;;;;;;;20.63;9.23;;;;;;;41.78;35.76;100820.47;4938711;29;20486;-70
2022/10/30 02:10:46;;;;;;;22.80;12.40;;;;;;;41.54;36.46;100824.66;4955655;28;20427;-71
2022/10/30 02:13:12;;;;;;;30.10;10.87;;;;;;;40.99;37.24;100814.72;4955737;28;20439;-73
2022/10/30 02:15:39;;;;;;;27.97;10.00;;;;;;;40.77;37.36;100821.22;4954287;28;20547;-71
2022/10/30 02:18:05;;;;;;;20.10;10.93;;;;;;;41.05;37.59;100818.06;4954223;29;20439;-71
2022/10/30 02:20:32;;;;;;;29.60;10.80;;;;;;;41.18;36.88;100819.75;4954782;29;20429;-70
2022/10/30 02:22:58;;;;;;;29.87;11.13;;;;;;;40.90;37.16;100819.44;4954113;29;20454;-71
2022/10/30 02:25:24;;;;;;;15.27;9.67;;;;;;;40.97;37.65;100818.91;4957861;28;20458;-71
2022/10/30 02:27:50;;;;;;;26.73;12.33;;;;;;;40.91;37.53;100817.50;4962907;28;20616;-71
2022/10/30 02:30:16;;;;;;;25.33;10.33;;;;;;;41.16;36.74;100808.41;4973332;28;20422;-71
2022/10/30 02:32:42;;;;;;;31.57;13.07;;;;;;;41.10;36.77;100808.91;4974855;28;20410;-70
2022/10/30 02:35:08;;;;;;;29.57;13.07;;;;;;;41.53;36.50;100814.09;4973243;28;20410;-71
2022/10/30 02:37:38;;;;;;;19.97;11.33;;;;;;;40.72;37.51;100810.53;4973232;28;20473;-71
2022/10/30 02:40:07;;;;;;;24.07;8.90;;;;;;;41.11;36.83;100818.66;4974668;28;20970;-71
2022/10/30 02:42:34;;;;;;;19.30;10.10;;;;;;;41.58;36.48;100814.69;4957209;28;20461;-71
2022/10/30 02:44:59;;;;;;;20.17;11.23;;;;;;;41.83;35.72;100812.09;4974579;28;20410;-71
2022/10/30 02:47:27;;;;;;;26.60;14.27;;;;;;;41.26;36.54;100816.19;4973050;28;20950;-71
2022/10/30 02:49:53;;;;;;;37.17;12.80;;;;;;;41.23;36.87;100819.56;4973039;28;20702;-71
2022/10/30 02:52:19;;;;;;;21.90;10.17;;;;;;;41.52;36.43;100816.03;4974433;28;20410;-71
2022/10/30 02:54:45;;;;;;;17.33;9.97;;;;;;;41.61;36.31;100814.00;4972225;28;20447;-71
2022/10/30 02:57:11;;;;;;;21.87;9.27;;;;;;;41.69;35.82;100812.38;4972818;28;20903;-71
2022/10/30 02:59:37;;;;;;;30.67;10.17;;;;;;;41.84;35.81;100811.75;4973079;28;20797;-71
2022/10/30 03:02:03;;;;;;;24.90;10.60;;;;;;;41.51;36.51;100813.63;4972760;28;21037;-71
2022/10/30 03:04:29;;;;;;;19.60;11.17;;;;;;;41.71;35.76;100810.09;4972656;28;20426;-71
2022/10/30 03:06:55;;;;;;;19.13;10.30;;;;;;;41.11;37.11;100807.78;4973882;28;20422;-70
2022/10/30 03:09:21;;;;;;;21.03;9.70;;;;;;;41.12;36.81;100812.09;4973948;28;20473;-71
2022/10/30 03:11:47;;;;;;;27.70;9.77;;;;;;;41.36;36.58;100812.28;4972682;28;20509;-71
2022/10/30 03:14:13;;;;;;;29.47;10.23;;;;;;;40.36;38.21;100812.88;4956875;28;20509;-71
2022/10/30 03:16:39;;;;;;;30.20;10.67;;;;;;;41.11;37.29;100816.75;4974174;28;20220;-71
2022/10/30 03:19:05;;;;;;;28.90;10.33;;;;;;;41.32;36.71;100816.78;4956836;28;20437;-71
2022/10/30 03:21:30;;;;;;;24.17;9.87;;;;;;;40.62;37.59;100816.31;4972556;28;20249;-71
2022/10/30 03:23:58;;;;;;;22.50;9.50;;;;;;;40.91;37.33;100822.94;4972609;28;20426;-71
2022/10/30 03:26:25;;;;;;;25.60;9.23;;;;;;;40.80;37.93;100820.56;4972379;28;20449;-71
2022/10/30 03:28:51;;;;;;;27.17;10.20;;;;;;;40.96;37.60;100811.88;4972434;28;20434;-71
2022/10/30 03:31:18;;;;;;;18.03;9.13;;;;;;;40.61;37.92;100820.16;4956379;28;20950;-71
2022/10/30 03:33:44;;;;;;;23.50;9.47;;;;;;;40.86;37.63;100814.94;4972652;28;20435;-71
2022/10/30 03:36:12;;;;;;;28.03;10.97;;;;;;;40.71;37.53;100811.66;4972444;28;20438;-71
2022/10/30 03:38:38;;;;;;;27.73;12.10;;;;;;;40.40;38.50;100816.53;4972973;28;20410;-71
2022/10/30 03:41:05;;;;;;;33.63;10.40;;;;;;;40.77;37.79;100820.44;4972759;28;20398;-71
2022/10/30 03:43:31;;;;;;;17.93;9.97;;;;;;;41.06;37.33;100820.44;4956204;28;20462;-71
2022/10/30 03:45:57;;;;;;;17.80;10.87;;;;;;;41.31;36.63;100832.31;4972261;28;20517;-70
2022/10/30 03:48:25;;;;;;;28.23;10.67;;;;;;;41.26;36.97;100824.34;4972373;28;20469;-71
2022/10/30 03:50:56;;;;;;;18.37;9.60;;;;;;;41.33;36.97;100832.81;4972278;28;20486;-70
2022/10/30 03:53:24;;;;;;;24.90;10.87;;;;;;;41.46;36.21;100822.78;4973839;28;20888;-71
2022/10/30 03:55:52;;;;;;;22.80;10.73;;;;;;;41.47;36.67;100827.09;4973928;28;20418;-71
2022/10/30 03:58:18;;;;;;;28.60;11.10;;;;;;;41.27;36.70;100828.66;4972158;28;20459;-71
2022/10/30 04:00:44;;;;;;;32.30;10.73;;;;;;;41.20;37.19;100828.38;4973729;28;20446;-71
2022/10/30 04:03:10;;;;;;;27.33;12.30;;;;;;;40.93;37.52;100824.19;4972179;28;20520;-71
2022/10/30 04:05:38;;;;;;;27.73;9.80;;;;;;;41.15;36.91;100823.13;4975812;28;20205;-72
2022/10/30 04:08:07;;;;;;;22.70;9.10;;;;;;;41.24;36.72;100826.59;4975790;28;20817;-71
2022/10/30 04:10:34;;;;;;;22.77;12.27;;;;;;;40.95;37.65;100829.34;4977304;28;20841;-70
2022/10/30 04:13:01;;;;;;;27.33;10.83;;;;;;;40.67;37.91;100824.31;4975895;28;20449;-70
2022/10/30 04:15:27;;;;;;;20.53;10.67;;;;;;;41.13;37.16;100821.84;4975727;28;20421;-71
2022/10/30 04:17:53;;;;;;;22.63;9.80;;;;;;;40.99;37.34;100824.81;4977302;28;20402;-70
2022/10/30 04:20:20;;;;;;;20.93;11.43;;;;;;;41.12;37.31;100823.78;4975746;28;20426;-71
2022/10/30 04:22:46;;;;;;;22.67;12.90;;;;;;;41.28;36.43;100832.97;4975435;28;20535;-71
2022/10/30 04:25:13;;;;;;;26.50;13.57;;;;;;;41.18;36.79;100829.81;4975700;28;20430;-71
2022/10/30 04:27:43;;;;;;;27.27;13.17;;;;;;;41.36;37.04;100831.34;4975462;28;20582;-71
2022/10/30 04:30:11;;;;;;;29.93;16.90;;;;;;;41.09;37.02;100824.44;4975350;28;20426;-71
2022/10/30 04:32:44;;;;;;;25.30;12.57;;;;;;;40.75;37.99;100826.19;4975519;28;20502;-71
2022/10/30 04:35:10;;;;;;;25.00;12.03;;;;;;;40.65;37.50;100823.84;4975281;28;20422;-71
2022/10/30 04:37:36;;;;;;;34.50;16.43;;;;;;;40.63;37.66;100828.00;4975385;28;20426;-71
2022/10/30 04:40:02;;;;;;;24.73;14.63;;;;;;;40.62;38.20;100826.41;4975815;28;20953;-71
2022/10/30 04:42:28;;;;;;;29.53;13.40;;;;;;;40.83;37.92;100821.06;4975326;28;20207;-71
2022/10/30 04:44:54;;;;;;;31.00;15.63;;;;;;;41.01;37.32;100828.03;4975243;28;20954;-71
2022/10/30 04:47:20;;;;;;;25.80;13.50;;;;;;;41.23;36.76;100826.91;4975421;28;20980;-71
2022/10/30 04:49:46;;;;;;;26.03;15.53;;;;;;;41.31;36.69;100828.78;4972105;28;20517;-72
2022/10/30 04:52:12;;;;;;;27.93;15.27;;;;;;;40.54;37.60;100834.25;4975089;28;20510;-71
2022/10/30 04:54:38;;;;;;;27.37;14.20;;;;;;;40.55;38.01;100835.06;4975319;28;20810;-71
2022/10/30 04:57:04;;;;;;;36.07;16.83;;;;;;;39.88;39.14;100841.84;4976644;28;20414;-71
2022/10/30 04:59:30;;;;;;;37.97;17.57;;;;;;;40.04;39.14;100839.47;4973236;28;20509;-71
2022/10/30 05:01:56;;;;;;;28.37;17.20;;;;;;;40.47;38.33;100838.59;4974559;28;20617;-72
2022/10/30 05:04:22;;;;;;;28.43;18.87;;;;;;;40.66;37.49;100841.75;4991224;28;20199;-70
2022/10/30 05:06:48;;;;;;;28.47;16.40;;;;;;;40.75;37.22;100842.50;4974920;28;20433;-71
2022/10/30 05:09:14;;;;;;;28.10;15.63;;;;;;;40.74;37.78;100851.78;4974948;28;20437;-71
2022/10/30 05:11:40;;;;;;;37.83;18.70;;;;;;;40.40;37.93;100849.16;4974768;28;20473;-71
2022/10/30 05:14:06;;;;;;;44.03;16.40;;;;;;;40.43;37.77;100845.78;4974990;28;20214;-71
2022/10/30 05:16:32;;;;;;;29.27;14.67;;;;;;;40.58;37.88;100844.47;4974123;28;20206;-70
2022/10/30 05:18:58;;;;;;;29.03;15.00;;;;;;;40.95;36.98;100853.81;4974645;28;20446;-72
2022/10/30 05:21:24;;;;;;;39.33;16.77;;;;;;;40.98;36.69;100856.66;4974635;28;20505;-72
2022/10/30 05:23:50;;;;;;;34.50;16.67;;;;;;;41.12;36.61;100861.88;4974500;28;20434;-71
2022/10/30 05:26:16;;;;;;;37.97;17.70;;;;;;;40.68;37.42;100861.25;4974347;28;20446;-71
2022/10/30 05:28:41;;;;;;;33.27;16.53;;;;;;;40.14;38.65;100865.50;4974539;28;20563;-71
2022/10/30 05:31:07;;;;;;;37.80;17.40;;;;;;;40.52;38.02;100865.63;4974667;28;20182;-71
2022/10/30 05:33:33;;;;;;;43.50;21.17;;;;;;;40.80;37.25;100863.28;4974450;28;20415;-71
2022/10/30 05:35:59;;;;;;;31.97;16.60;;;;;;;40.66;37.22;100874.38;4976193;28;20422;-71
2022/10/30 05:38:25;;;;;;;26.47;17.80;;;;;;;40.69;37.25;100864.75;4974344;28;20425;-71
2022/10/30 05:40:51;;;;;;;31.87;19.87;;;;;;;40.64;37.55;100865.75;4958194;28;20537;-71
2022/10/30 05:43:17;;;;;;;32.43;17.83;;;;;;;40.86;37.41;100869.34;4975672;28;20510;-71
2022/10/30 05:45:43;;;;;;;47.10;20.17;;;;;;;40.89;37.08;100868.69;4974214;28;20258;-71
2022/10/30 05:48:09;;;;;;;46.07;20.00;;;;;;;40.47;37.78;100879.38;4973983;28;20435;-70
2022/10/30 05:50:35;;;;;;;37.60;18.83;;;;;;;40.54;37.43;100885.94;4958105;28;20430;-71
2022/10/30 05:53:03;;;;;;;35.70;19.70;;;;;;;39.97;38.57;100890.75;4974518;28;20394;-73
2022/10/30 05:55:30;;;;;;;32.03;18.27;;;;;;;40.26;38.48;100885.44;4973981;28;20473;-71
2022/10/30 05:58:00;;;;;;;30.53;18.47;;;;;;;40.67;37.85;100895.00;4990188;28;20418;-73
2022/10/30 06:00:28;;;;;;;32.90;22.03;;;;;;;40.48;37.49;100894.56;4974251;28;20410;-71
2022/10/30 06:03:02;;;;;;;33.90;23.10;;;;;;;40.22;38.59;100889.97;4989981;28;20996;-70
2022/10/30 06:05:35;;;;;;;30.43;22.77;;;;;;;40.42;38.12;100898.56;4990078;28;20482;-70
2022/10/30 06:08:03;;;;;;;35.60;19.83;;;;;;;40.28;38.42;100904.19;4989867;28;20423;-72
2022/10/30 06:10:29;;;;;;;39.90;21.47;;;;;;;40.57;38.17;100894.53;4957851;28;20415;-70
2022/10/30 06:12:59;;;;;;;40.70;21.20;;;;;;;40.34;38.57;100902.91;4974790;28;20493;-71
2022/10/30 06:15:27;;;;;;;39.07;22.03;;;;;;;40.84;37.33;100894.16;4973593;28;20418;-71
2022/10/30 06:17:53;;;;;;;37.47;19.27;;;;;;;41.07;37.24;100908.34;4989652;28;20417;-71
2022/10/30 06:20:21;;;;;;;31.23;17.27;;;;;;;40.54;37.81;100906.88;4973435;28;20454;-73
2022/10/30 06:22:55;;;;;;;34.23;20.77;;;;;;;39.95;38.81;100918.22;4974986;28;20953;-71
2022/10/30 06:25:21;;;;;;;35.73;21.40;;;;;;;40.70;38.10;100913.41;4957591;28;20419;-72
2022/10/30 06:27:47;;;;;;;24.93;19.90;;;;;;;40.57;37.74;100911.66;4972692;28;20481;-70
2022/10/30 06:30:13;;;;;;;38.73;19.23;;;;;;;40.80;37.84;100918.47;4974641;28;20394;-71
2022/10/30 06:32:39;;;;;;;37.73;24.37;;;;;;;40.17;38.57;100920.00;4973143;28;20433;-71
2022/10/30 06:35:05;;;;;;;45.93;21.80;;;;;;;40.74;37.74;100922.50;4973208;28;20419;-72
2022/10/30 06:37:31;;;;;;;43.30;20.00;;;;;;;40.84;37.52;100931.44;4973304;28;20426;-71
2022/10/30 06:39:57;;;;;;;30.73;18.23;;;;;;;40.72;37.96;100941.06;4973446;28;20485;-71
2022/10/30 06:42:23;;;;;;;25.00;16.10;;;;;;;40.45;38.46;100946.84;4973007;28;20457;-71
2022/10/30 06:44:49;;;;;;;26.77;16.67;;;;;;;40.97;37.27;100946.78;4973092;28;20606;-71
2022/10/30 06:47:15;;;;;;;37.93;19.70;;;;;;;40.93;37.34;100948.56;4973163;28;20230;-71
2022/10/30 06:49:41;;;;;;;26.37;17.00;;;;;;;41.11;36.86;100952.81;4973874;28;20179;-71
2022/10/30 06:52:07;;;;;;;29.40;17.57;;;;;;;41.08;37.28;100958.91;4972599;28;20433;-71
2022/10/30 06:54:33;;;;;;;28.90;18.70;;;;;;;41.41;36.44;100958.31;4972328;28;20513;-71
2022/10/30 06:56:59;;;;;;;33.27;18.30;;;;;;;41.51;36.27;100966.13;4988160;28;20938;-71
2022/10/30 06:59:25;;;;;;;32.93;17.87;;;;;;;41.55;36.39;100967.84;4973469;28;20406;-71
2022/10/30 07:01:51;;;;;;;24.53;18.00;;;;;;;41.46;36.60;100964.38;4971434;28;20453;-71
2022/10/30 07:04:17;;;;;;;31.53;18.60;;;;;;;41.59;35.91;100978.88;4972181;28;20469;-71
2022/10/30 07:06:43;;;;;;;37.90;19.10;;;;;;;41.38;36.28;100978.84;4972284;28;20810;-71
2022/10/30 07:09:09;;;;;;;26.17;15.47;;;;;;;41.68;36.10;100976.91;4973989;28;20461;-70
2022/10/30 07:11:35;;;;;;;39.00;18.80;;;;;;;41.81;35.77;100973.19;4972420;28;20426;-73
2022/10/30 07:14:04;;;;;;;27.90;18.47;;;;;;;41.74;36.08;100985.66;4968131;28;20510;-70
2022/10/30 07:16:30;;;;;;;23.63;18.93;;;;;;;41.96;36.13;100990.84;4962233;28;20513;-73
2022/10/30 07:18:56;;;;;;;33.30;19.30;;;;;;;41.91;35.65;100985.59;4958249;28;20824;-70
2022/10/30 07:21:22;;;;;;;27.63;18.50;;;;;;;42.20;35.26;101000.34;4953240;29;20451;-71
2022/10/30 07:23:47;;;;;;;30.13;17.27;;;;;;;42.28;35.24;100997.53;4961476;28;20418;-70
2022/10/30 07:26:13;;;;;;;35.77;18.00;;;;;;;42.23;35.18;101002.38;4973255;28;20425;-68
2022/10/30 07:28:39;;;;;;;35.83;18.23;;;;;;;42.31;34.93;101007.78;4973131;28;20178;-70
2022/10/30 07:31:05;;;;;;;34.57;18.97;;;;;;;42.28;35.06;101002.19;4971365;28;20418;-69
2022/10/30 07:33:31;;;;;;;24.70;16.93;;;;;;;42.42;35.01;101010.06;4964998;28;20473;-70
2022/10/30 07:36:00;;;;;;;33.93;18.53;;;;;;;42.43;34.90;101012.50;4970864;28;20465;-69
2022/10/30 07:38:26;;;;;;;21.83;15.10;;;;;;;42.41;34.82;101014.75;4971830;28;20811;-70
2022/10/30 07:40:53;;;;;;;26.13;14.90;;;;;;;42.61;34.78;101018.63;4974591;28;20970;-69
2022/10/30 07:43:19;;;;;;;46.43;18.70;;;;;;;42.78;34.01;101029.34;4975532;28;20480;-70
2022/10/30 07:45:45;;;;;;;40.63;18.70;;;;;;;42.82;34.05;101029.47;4975943;28;20524;-70
2022/10/30 07:48:11;;;;;;;34.13;15.10;;;;;;;42.91;34.15;101039.19;4977152;28;20425;-71
2022/10/30 07:50:37;;;;;;;39.00;13.40;;;;;;;42.80;34.33;101032.56;4976261;28;20540;-71
2022/10/30 07:53:03;;;;;;;28.57;12.60;;;;;;;42.91;33.92;101039.19;4975904;28;20780;-70
2022/10/30 07:55:29;;;;;;;28.67;13.33;;;;;;;42.90;33.87;101036.78;4975460;28;20481;-72
2022/10/30 07:57:55;;;;;;;29.10;13.47;;;;;;;42.97;33.82;101041.69;4975698;28;20565;-69
2022/10/30 08:00:21;;;;;;;22.93;11.73;;;;;;;42.86;34.03;101041.31;4976148;28;20533;-70
2022/10/30 08:02:55;;;;;;;18.07;12.70;;;;;;;42.86;34.17;101044.84;4975569;28;21021;-73
2022/10/30 08:05:20;;;;;;;22.60;13.67;;;;;;;42.97;34.12;101055.31;4975802;28;20478;-73
2022/10/30 08:07:47;;;;;;;43.63;14.40;;;;;;;42.90;34.13;101053.94;4975894;28;20852;-70
2022/10/30 08:10:13;;;;;;;24.80;12.83;;;;;;;42.96;34.08;101061.91;4977317;28;20636;-70
2022/10/30 08:12:40;;;;;;;18.10;12.77;;;;;;;42.93;34.06;101061.47;4974836;28;20403;-76
2022/10/30 08:15:07;;;;;;;20.40;12.90;;;;;;;42.96;33.97;101062.72;4989162;28;20418;-70
2022/10/30 08:17:41;;;;;;;27.63;15.57;;;;;;;42.91;34.40;101066.47;4957206;28;20470;-71
2022/10/30 08:20:08;;;;;;;18.77;11.80;;;;;;;42.92;34.24;101070.00;4959377;28;20786;-69
2022/10/30 08:22:33;;;;;;;19.87;12.60;;;;;;;43.02;34.09;101074.25;4975288;28;21016;-72
2022/10/30 08:24:59;;;;;;;21.93;12.90;;;;;;;43.02;34.14;101075.03;4975445;28;20422;-73
2022/10/30 08:27:25;;;;;;;18.63;13.17;;;;;;;42.95;34.07;101071.25;4975652;28;20214;-73
2022/10/30 08:29:51;;;;;;;25.30;14.37;;;;;;;42.98;34.11;101076.03;4976389;28;20179;-70
2022/10/30 08:32:17;;;;;;;23.40;12.73;;;;;;;43.09;34.02;101077.22;4975089;28;20187;-74
2022/10/30 08:34:43;;;;;;;22.37;11.30;;;;;;;43.05;34.02;101070.84;4975274;28;20259;-73
2022/10/30 08:37:09;;;;;;;23.67;13.90;;;;;;;42.96;34.10;101067.38;4975236;28;20171;-74
2022/10/30 08:39:35;;;;;;;31.33;14.10;;;;;;;43.02;34.08;101066.84;4975581;28;20214;-74
2022/10/30 08:42:01;;;;;;;26.50;15.47;;;;;;;43.08;34.19;101065.50;4975907;28;20477;-73
2022/10/30 08:44:27;;;;;;;19.77;13.30;;;;;;;43.12;34.17;101069.16;4973556;28;20480;-74
2022/10/30 08:46:53;;;;;;;28.67;14.37;;;;;;;43.15;34.04;101060.28;4973253;28;20462;-73
2022/10/30 08:49:19;;;;;;;19.30;13.73;;;;;;;43.19;33.78;101066.69;4973698;28;20214;-74
2022/10/30 08:51:45;;;;;;;20.37;11.20;;;;;;;43.10;34.03;101067.91;4972202;28;20478;-74
2022/10/30 08:54:11;;;;;;;17.93;10.37;;;;;;;43.08;34.23;101079.16;4973458;28;20422;-74
2022/10/30 08:56:37;;;;;;;30.60;14.53;;;;;;;42.98;34.16;101076.88;4973058;28;20198;-73
2022/10/30 08:59:06;;;;;;;35.70;13.20;;;;;;;43.12;34.17;101065.66;4973187;28;20414;-74
2022/10/30 09:01:32;;;;;;;21.37;14.33;;;;;;;43.16;34.32;101067.38;4973175;28;20970;-75
2022/10/30 09:03:58;;;;;;;34.73;13.50;;;;;;;43.04;34.04;101069.28;4972048;28;20413;-74
2022/10/30 09:06:24;;;;;;;22.23;12.30;;;;;;;43.06;34.30;101069.72;4974318;28;20469;-73
2022/10/30 09:08:49;;;;;;;24.63;11.37;;;;;;;43.13;34.16;101065.28;4974487;28;20962;-75
2022/10/30 09:11:16;;;;;;;22.33;13.23;;;;;;;43.12;34.18;101060.19;4993482;28;20197;-74
2022/10/30 09:13:42;;;;;;;30.83;13.07;;;;;;;43.21;34.03;101062.81;4993942;28;20410;-72
2022/10/30 09:16:08;;;;;;;29.30;11.87;;;;;;;43.20;33.97;101062.00;4985468;28;20465;-73
2022/10/30 09:18:34;;;;;;;24.43;13.90;;;;;;;43.23;33.99;101055.88;4974171;28;20434;-73
2022/10/30 09:21:00;;;;;;;28.23;14.07;;;;;;;43.14;33.97;101049.72;4975903;28;20440;-75
2022/10/30 09:23:26;;;;;;;22.07;13.80;;;;;;;43.00;34.21;101057.41;4975086;28;20473;-74
2022/10/30 09:25:56;;;;;;;19.17;11.80;;;;;;;43.07;34.19;101050.28;4974107;28;20760;-74
2022/10/30 09:28:21;;;;;;;28.60;12.20;;;;;;;42.97;34.72;101047.13;4975647;28;20521;-78
2022/10/30 09:30:51;;;;;;;20.33;12.73;;;;;;;42.99;34.10;101051.16;4974000;28;20512;-75
2022/10/30 09:33:17;;;;;;;16.30;10.20;;;;;;;43.22;34.30;101048.00;4964978;28;20662;-75
2022/10/30 09:35:43;;;;;;;28.23;11.47;;;;;;;43.13;34.37;101048.91;4982884;28;20469;-77
2022/10/30 09:38:09;;;;;;;28.50;11.80;;;;;;;43.17;33.94;101046.31;4982495;28;20450;-78
2022/10/30 09:40:53;;;;;;;20.50;10.53;;;;;;;43.18;34.33;101042.44;4974367;28;20194;-70
2022/10/30 09:43:38;;;;;;;27.23;10.70;;;;;;;43.39;34.09;101034.19;4962019;28;20190;-73
2022/10/30 09:46:38;;;;;;;27.63;12.63;;;;;;;43.43;34.01;101043.31;4974356;28;20442;-70
2022/10/30 09:49:41;;;;;;;18.50;10.40;;;;;;;43.46;33.86;101037.16;4988820;28;20413;-71
2022/10/30 09:52:51;;;;;;;21.30;13.80;;;;;;;43.41;34.04;101045.59;4981219;28;20793;-70
2022/10/30 09:55:28;;;;;;;21.73;12.07;;;;;;;43.52;33.70;101034.97;4904983;29;20441;-71
2022/10/30 09:58:18;;;;;;;22.10;11.43;;;;;;;43.57;33.60;101040.22;4899600;29;20435;-71
2022/10/30 10:00:49;;;;;;;20.57;10.10;;;;;;;43.43;33.45;101043.31;4970408;28;20481;-71
2022/10/30 10:03:36;;;;;;;41.00;13.17;;;;;;;43.58;33.44;101036.34;4973566;28;20484;-71
2022/10/30 10:06:03;;;;;;;30.50;13.40;;;;;;;43.56;33.60;101038.63;4997747;23;20496;-71
2022/10/30 10:08:32;;;;;;;17.53;10.50;;;;;;;43.47;33.83;101044.22;5017277;28;20471;-71
2022/10/30 10:11:03;;;;;;;27.57;13.67;;;;;;;43.41;34.07;101042.84;5008296;28;20471;-72
2022/10/30 10:13:41;;;;;;;31.83;11.97;;;;;;;43.51;33.60;101039.66;5012509;28;20425;-71
2022/10/30 10:16:16;;;;;;;24.40;12.80;;;;;;;43.60;33.54;101042.28;5011838;28;20459;-72
2022/10/30 10:18:51;;;;;;;29.60;12.77;;;;;;;43.62;33.91;101037.28;5011465;28;20947;-74
2022/10/30 10:21:28;;;;;;;20.07;11.90;;;;;;;43.75;33.21;101030.66;5004136;28;20436;-74
2022/10/30 10:24:01;;;;;;;26.00;11.70;;;;;;;43.53;33.48;101033.88;5021273;28;20939;-72
2022/10/30 10:26:56;;;;;;;23.80;12.63;;;;;;;43.49;33.62;101016.56;5018559;28;20443;-70
2022/10/30 10:29:44;;;;;;;20.97;10.50;;;;;;;43.72;33.32;101023.94;4977220;28;20859;-73
2022/10/30 10:32:47;;;;;;;19.43;10.27;;;;;;;43.80;33.33;101018.72;5011492;28;20917;-72
2022/10/30 10:35:35;;;;;;;30.30;11.97;;;;;;;43.70;33.54;101018.00;5011533;28;20459;-74
2022/10/30 10:38:35;;;;;;;25.07;13.20;;;;;;;43.63;33.11;101006.06;5012323;28;20487;-74
2022/10/30 10:41:29;;;;;;;17.90;11.03;;;;;;;43.82;33.18;100998.09;5010459;28;20941;-74
2022/10/30 10:44:00;;;;;;;29.90;13.00;;;;;;;43.95;32.79;100996.97;5009567;28;20460;-73
2022/10/30 10:46:39;;;;;;;22.30;11.00;;;;;;;43.86;32.94;100999.03;5011246;28;20432;-73
2022/10/30 10:49:59;;;;;;;18.50;11.77;;;;;;;43.82;33.06;101000.84;5011743;28;20504;-74
2022/10/30 10:52:46;;;;;;;19.50;8.73;;;;;;;43.89;32.70;100986.59;5003372;28;20425;-73
2022/10/30 10:55:19;;;;;;;23.93;10.57;;;;;;;44.08;32.50;100986.00;5012018;28;20428;-73
2022/10/30 10:57:46;;;;;;;19.43;9.53;;;;;;;44.00;32.75;100995.91;5011773;28;20512;-73
2022/10/30 11:00:22;;;;;;;24.93;9.37;;;;;;;43.76;32.83;100991.25;5011343;28;20428;-72
2022/10/30 11:03:04;;;;;;;29.80;11.47;;;;;;;43.92;32.56;100991.38;5012164;28;20448;-72
2022/10/30 11:05:39;;;;;;;22.17;10.80;;;;;;;43.55;33.44;100994.13;5011646;28;20458;-74
2022/10/30 11:08:21;;;;;;;19.37;9.33;;;;;;;43.94;32.71;100986.34;5012820;28;20925;-73
2022/10/30 11:10:55;;;;;;;16.07;8.57;;;;;;;44.13;32.11;100983.00;5013296;28;20421;-72
2022/10/30 11:13:24;;;;;;;18.30;8.10;;;;;;;44.20;31.94;100970.38;5011633;28;20820;-74
2022/10/30 11:16:27;;;;;;;22.10;11.00;;;;;;;44.04;31.70;100966.75;5012674;28;20436;-73
2022/10/30 11:19:00;;;;;;;26.47;10.37;;;;;;;43.75;31.52;100962.34;5011583;28;20495;-73
2022/10/30 11:21:29;;;;;;;26.43;7.67;;;;;;;43.86;31.93;100962.69;5011644;28;20452;-73
2022/10/30 11:23:55;;;;;;;22.23;9.27;;;;;;;43.83;31.65;100963.38;5011600;28;20519;-73